Ide Min — PC8366 — position and weather

sailwx.info

Track history (hours):
 
Tides and Currents Weather Stations Pressure Air Temp Water Temp Dewpoint Dewpoint Depression Visibility Wind Speed Wind Dir Waves Ship Positions

Ide Min (Netherlands)

Ship's website: http://www.idemin.nl/english/english.html

Last reported at 2015-Jan-06 14:25 UTC. Time now 2015-Mar-03 18:53 UTC.
Position N 52°24' E 004°53'.
Warning: this ship's position is 56 days out of date.

Length 40 m; draft 2.4 m.

MMSI: 244537000.

Date/timePositionNaut miles runAvg speedWind from/ knotsBaromVisibWave heightAir tempDewpointWater temp
2015-Jan-06 14:25N 52°24' E 004°53'3 3.3
2015-Jan-06 13:30N 52°23' E 004°58'20 4.9
2015-Jan-06 09:33N 52°39' E 005°15'3 3.1
2015-Jan-06 08:33N 52°42' E 005°18'0 0.0
2015-Jan-06 07:27N 52°42' E 005°18'0 0.0
2015-Jan-06 06:33N 52°42' E 005°18'0 0.0
2015-Jan-06 05:15N 52°42' E 005°18'0 0.0
2015-Jan-06 04:27N 52°42' E 005°18'0 0.0
2015-Jan-06 03:09N 52°42' E 005°18'0 0.0
2015-Jan-06 00:33N 52°42' E 005°18'0 0.0
2015-Jan-05 23:33N 52°42' E 005°18'0 0.0
2015-Jan-05 22:27N 52°42' E 005°18'0 0.0
2015-Jan-05 21:27N 52°42' E 005°18'0 0.0
2015-Jan-05 20:27N 52°42' E 005°18'0 0.0
2015-Jan-05 19:21N 52°42' E 005°18'0 0.0
2015-Jan-05 18:03N 52°42' E 005°18'0 0.0
2015-Jan-05 17:10N 52°42' E 005°18'0 0.0
2015-Jan-05 16:28N 52°42' E 005°18'0 0.0
2015-Jan-05 15:27N 52°42' E 005°18'0 0.0
2015-Jan-05 14:28N 52°42' E 005°18'0 0.0
2015-Jan-05 13:33N 52°42' E 005°18'4 3.6
2015-Jan-05 12:32N 52°46' E 005°18'  
Track history (hours):
 
Tides and Currents Weather Stations Pressure Air Temp Water Temp Dewpoint Dewpoint Depression Visibility Wind Speed Wind Dir Waves Ship Positions

Ide Min (Netherlands)

Ship's website: http://www.idemin.nl/english/english.html

Last reported at 2015-Jan-06 14:25 UTC. Time now 2015-Mar-03 18:53 UTC.
Position N 52°24' E 004°53'.
Warning: this ship's position is 56 days out of date.

Length 40 m; draft 2.4 m.

MMSI: 244537000.

Date/timePositionNaut miles runAvg speedWind from/ knotsBaromVisibWave heightAir tempDewpointWater temp
2015-Jan-06 14:25N 52°24' E 004°53'3 3.3
2015-Jan-06 13:30N 52°23' E 004°58'20 4.9
2015-Jan-06 09:33N 52°39' E 005°15'3 3.1
2015-Jan-06 08:33N 52°42' E 005°18'0 0.0
2015-Jan-06 07:27N 52°42' E 005°18'0 0.0
2015-Jan-06 06:33N 52°42' E 005°18'0 0.0
2015-Jan-06 05:15N 52°42' E 005°18'0 0.0
2015-Jan-06 04:27N 52°42' E 005°18'0 0.0
2015-Jan-06 03:09N 52°42' E 005°18'0 0.0
2015-Jan-06 00:33N 52°42' E 005°18'0 0.0
2015-Jan-05 23:33N 52°42' E 005°18'0 0.0
2015-Jan-05 22:27N 52°42' E 005°18'0 0.0
2015-Jan-05 21:27N 52°42' E 005°18'0 0.0
2015-Jan-05 20:27N 52°42' E 005°18'0 0.0
2015-Jan-05 19:21N 52°42' E 005°18'0 0.0
2015-Jan-05 18:03N 52°42' E 005°18'0 0.0
2015-Jan-05 17:10N 52°42' E 005°18'0 0.0
2015-Jan-05 16:28N 52°42' E 005°18'0 0.0
2015-Jan-05 15:27N 52°42' E 005°18'0 0.0
2015-Jan-05 14:28N 52°42' E 005°18'0 0.0
2015-Jan-05 13:33N 52°42' E 005°18'4 3.6
2015-Jan-05 12:32N 52°46' E 005°18'  

Dump ship's entire track history